sensor_id;sensor_type;location;lat;lon;timestamp;P1;durP1;ratioP1;P2;durP2;ratioP2
2388;SDS011;1205;47.984;7.668;2022-12-18T00:00:59;54.23;;;17.37;;
2388;SDS011;1205;47.984;7.668;2022-12-18T00:03:25;47.70;;;16.97;;
2388;SDS011;1205;47.984;7.668;2022-12-18T00:05:51;56.13;;;17.80;;
2388;SDS011;1205;47.984;7.668;2022-12-18T00:08:17;45.30;;;17.10;;
2388;SDS011;1205;47.984;7.668;2022-12-18T00:10:44;44.23;;;14.63;;
2388;SDS011;1205;47.984;7.668;2022-12-18T00:13:10;42.83;;;15.80;;
2388;SDS011;1205;47.984;7.668;2022-12-18T00:15:37;44.27;;;16.30;;
2388;SDS011;1205;47.984;7.668;2022-12-18T00:18:04;40.27;;;16.33;;
2388;SDS011;1205;47.984;7.668;2022-12-18T00:20:30;40.17;;;14.20;;
2388;SDS011;1205;47.984;7.668;2022-12-18T00:22:56;41.13;;;14.47;;
2388;SDS011;1205;47.984;7.668;2022-12-18T00:25:22;50.67;;;15.47;;
2388;SDS011;1205;47.984;7.668;2022-12-18T00:27:48;41.80;;;13.73;;
2388;SDS011;1205;47.984;7.668;2022-12-18T00:30:13;49.43;;;15.20;;
2388;SDS011;1205;47.984;7.668;2022-12-18T00:32:39;34.23;;;13.50;;
2388;SDS011;1205;47.984;7.668;2022-12-18T00:35:05;51.63;;;14.87;;
2388;SDS011;1205;47.984;7.668;2022-12-18T00:37:33;40.23;;;13.97;;
2388;SDS011;1205;47.984;7.668;2022-12-18T00:39:59;45.20;;;15.10;;
2388;SDS011;1205;47.984;7.668;2022-12-18T00:42:24;37.80;;;14.80;;
2388;SDS011;1205;47.984;7.668;2022-12-18T00:45:09;38.23;;;14.80;;
2388;SDS011;1205;47.984;7.668;2022-12-18T00:47:35;49.50;;;15.30;;
2388;SDS011;1205;47.984;7.668;2022-12-18T00:50:01;36.90;;;14.90;;
2388;SDS011;1205;47.984;7.668;2022-12-18T00:52:26;36.20;;;13.27;;
2388;SDS011;1205;47.984;7.668;2022-12-18T00:54:52;43.87;;;15.10;;
2388;SDS011;1205;47.984;7.668;2022-12-18T00:57:17;47.23;;;16.10;;
2388;SDS011;1205;47.984;7.668;2022-12-18T00:59:43;38.33;;;14.90;;
2388;SDS011;1205;47.984;7.668;2022-12-18T01:02:08;36.70;;;14.40;;
2388;SDS011;1205;47.984;7.668;2022-12-18T01:04:34;33.93;;;14.20;;
2388;SDS011;1205;47.984;7.668;2022-12-18T01:07:00;41.07;;;14.67;;
2388;SDS011;1205;47.984;7.668;2022-12-18T01:09:25;35.70;;;12.93;;
2388;SDS011;1205;47.984;7.668;2022-12-18T01:11:51;35.30;;;14.30;;
2388;SDS011;1205;47.984;7.668;2022-12-18T01:14:16;35.77;;;14.77;;
2388;SDS011;1205;47.984;7.668;2022-12-18T01:16:42;36.20;;;13.27;;
2388;SDS011;1205;47.984;7.668;2022-12-18T01:19:08;36.87;;;13.47;;
2388;SDS011;1205;47.984;7.668;2022-12-18T01:21:34;49.27;;;14.50;;
2388;SDS011;1205;47.984;7.668;2022-12-18T01:23:59;43.10;;;15.13;;
2388;SDS011;1205;47.984;7.668;2022-12-18T01:26:25;38.67;;;13.47;;
2388;SDS011;1205;47.984;7.668;2022-12-18T01:28:54;34.07;;;13.20;;
2388;SDS011;1205;47.984;7.668;2022-12-18T01:31:22;40.10;;;13.00;;
2388;SDS011;1205;47.984;7.668;2022-12-18T01:33:51;35.90;;;12.10;;
2388;SDS011;1205;47.984;7.668;2022-12-18T01:36:39;29.77;;;12.13;;
2388;SDS011;1205;47.984;7.668;2022-12-18T01:39:07;36.07;;;12.00;;
2388;SDS011;1205;47.984;7.668;2022-12-18T01:41:36;29.43;;;11.87;;
2388;SDS011;1205;47.984;7.668;2022-12-18T01:47:18;27.17;;;12.27;;
2388;SDS011;1205;47.984;7.668;2022-12-18T01:49:48;32.97;;;12.93;;
2388;SDS011;1205;47.984;7.668;2022-12-18T01:52:14;33.50;;;13.40;;
2388;SDS011;1205;47.984;7.668;2022-12-18T01:54:40;34.70;;;14.23;;
2388;SDS011;1205;47.984;7.668;2022-12-18T01:57:06;36.13;;;14.87;;
2388;SDS011;1205;47.984;7.668;2022-12-18T01:59:32;38.10;;;13.77;;
2388;SDS011;1205;47.984;7.668;2022-12-18T02:01:59;35.67;;;14.20;;
2388;SDS011;1205;47.984;7.668;2022-12-18T02:04:26;36.00;;;12.77;;
2388;SDS011;1205;47.984;7.668;2022-12-18T02:10:00;25.03;;;12.47;;
2388;SDS011;1205;47.984;7.668;2022-12-18T02:12:42;30.40;;;11.80;;
2388;SDS011;1205;47.984;7.668;2022-12-18T02:15:15;34.10;;;12.93;;
2388;SDS011;1205;47.984;7.668;2022-12-18T02:17:54;32.13;;;13.47;;
2388;SDS011;1205;47.984;7.668;2022-12-18T02:20:29;29.77;;;11.90;;
2388;SDS011;1205;47.984;7.668;2022-12-18T02:28:06;26.80;;;11.33;;
2388;SDS011;1205;47.984;7.668;2022-12-18T02:30:35;24.23;;;10.70;;
2388;SDS011;1205;47.984;7.668;2022-12-18T02:33:04;28.23;;;11.37;;
2388;SDS011;1205;47.984;7.668;2022-12-18T02:35:32;30.00;;;10.70;;
2388;SDS011;1205;47.984;7.668;2022-12-18T02:37:59;28.37;;;11.47;;
2388;SDS011;1205;47.984;7.668;2022-12-18T02:40:26;23.03;;;11.00;;
2388;SDS011;1205;47.984;7.668;2022-12-18T02:42:53;33.63;;;12.83;;
2388;SDS011;1205;47.984;7.668;2022-12-18T02:45:19;29.60;;;12.37;;
2388;SDS011;1205;47.984;7.668;2022-12-18T02:47:46;41.67;;;13.83;;
2388;SDS011;1205;47.984;7.668;2022-12-18T02:58:20;36.17;;;12.47;;
2388;SDS011;1205;47.984;7.668;2022-12-18T03:00:59;35.60;;;12.83;;
2388;SDS011;1205;47.984;7.668;2022-12-18T03:03:36;28.70;;;11.90;;
2388;SDS011;1205;47.984;7.668;2022-12-18T03:06:24;34.97;;;11.97;;
2388;SDS011;1205;47.984;7.668;2022-12-18T03:08:57;40.43;;;12.80;;
2388;SDS011;1205;47.984;7.668;2022-12-18T03:11:27;36.50;;;13.27;;
2388;SDS011;1205;47.984;7.668;2022-12-18T03:14:15;39.17;;;14.70;;
2388;SDS011;1205;47.984;7.668;2022-12-18T03:16:43;39.83;;;15.30;;
2388;SDS011;1205;47.984;7.668;2022-12-18T03:19:11;36.80;;;13.07;;
2388;SDS011;1205;47.984;7.668;2022-12-18T03:21:48;30.60;;;12.10;;
2388;SDS011;1205;47.984;7.668;2022-12-18T03:24:17;31.10;;;11.40;;
2388;SDS011;1205;47.984;7.668;2022-12-18T03:26:46;27.57;;;11.77;;
2388;SDS011;1205;47.984;7.668;2022-12-18T03:29:25;24.13;;;11.20;;
2388;SDS011;1205;47.984;7.668;2022-12-18T03:32:04;32.20;;;12.07;;
2388;SDS011;1205;47.984;7.668;2022-12-18T03:34:35;30.20;;;11.70;;
2388;SDS011;1205;47.984;7.668;2022-12-18T03:37:03;30.50;;;11.97;;
2388;SDS011;1205;47.984;7.668;2022-12-18T03:39:29;31.03;;;12.67;;
2388;SDS011;1205;47.984;7.668;2022-12-18T03:42:01;35.97;;;13.93;;
2388;SDS011;1205;47.984;7.668;2022-12-18T03:50:05;42.30;;;11.63;;
2388;SDS011;1205;47.984;7.668;2022-12-18T03:52:45;32.67;;;12.63;;
2388;SDS011;1205;47.984;7.668;2022-12-18T03:55:17;31.30;;;12.30;;
2388;SDS011;1205;47.984;7.668;2022-12-18T03:57:44;32.50;;;12.43;;
2388;SDS011;1205;47.984;7.668;2022-12-18T04:00:12;36.07;;;12.10;;
2388;SDS011;1205;47.984;7.668;2022-12-18T04:02:45;34.27;;;12.60;;
2388;SDS011;1205;47.984;7.668;2022-12-18T04:05:14;30.13;;;12.47;;
2388;SDS011;1205;47.984;7.668;2022-12-18T04:07:42;32.97;;;12.40;;
2388;SDS011;1205;47.984;7.668;2022-12-18T04:10:10;37.10;;;12.97;;
2388;SDS011;1205;47.984;7.668;2022-12-18T04:12:37;29.50;;;13.23;;
2388;SDS011;1205;47.984;7.668;2022-12-18T04:15:03;33.60;;;13.63;;
2388;SDS011;1205;47.984;7.668;2022-12-18T04:17:30;33.53;;;12.57;;
2388;SDS011;1205;47.984;7.668;2022-12-18T04:19:56;41.33;;;13.80;;
2388;SDS011;1205;47.984;7.668;2022-12-18T04:22:21;31.83;;;13.60;;
2388;SDS011;1205;47.984;7.668;2022-12-18T04:24:47;33.40;;;12.73;;
2388;SDS011;1205;47.984;7.668;2022-12-18T04:27:12;39.07;;;13.67;;
2388;SDS011;1205;47.984;7.668;2022-12-18T04:29:39;42.87;;;15.30;;
2388;SDS011;1205;47.984;7.668;2022-12-18T04:32:04;36.50;;;13.20;;
2388;SDS011;1205;47.984;7.668;2022-12-18T04:34:30;38.40;;;14.37;;
2388;SDS011;1205;47.984;7.668;2022-12-18T04:36:56;46.30;;;15.70;;
2388;SDS011;1205;47.984;7.668;2022-12-18T04:39:21;40.73;;;14.37;;
2388;SDS011;1205;47.984;7.668;2022-12-18T04:41:47;43.90;;;14.17;;
2388;SDS011;1205;47.984;7.668;2022-12-18T04:44:12;39.17;;;15.97;;
2388;SDS011;1205;47.984;7.668;2022-12-18T04:46:38;40.73;;;15.67;;
2388;SDS011;1205;47.984;7.668;2022-12-18T04:49:04;36.80;;;14.10;;
2388;SDS011;1205;47.984;7.668;2022-12-18T04:51:29;38.23;;;14.23;;
2388;SDS011;1205;47.984;7.668;2022-12-18T04:53:55;39.83;;;14.17;;
2388;SDS011;1205;47.984;7.668;2022-12-18T04:56:20;40.30;;;14.13;;
2388;SDS011;1205;47.984;7.668;2022-12-18T04:58:46;37.50;;;13.63;;
2388;SDS011;1205;47.984;7.668;2022-12-18T05:01:13;35.73;;;13.00;;
2388;SDS011;1205;47.984;7.668;2022-12-18T05:03:39;38.43;;;14.83;;
2388;SDS011;1205;47.984;7.668;2022-12-18T05:06:05;42.30;;;14.20;;
2388;SDS011;1205;47.984;7.668;2022-12-18T05:08:32;37.17;;;13.63;;
2388;SDS011;1205;47.984;7.668;2022-12-18T05:11:04;40.47;;;15.20;;
2388;SDS011;1205;47.984;7.668;2022-12-18T05:13:32;40.50;;;15.70;;
2388;SDS011;1205;47.984;7.668;2022-12-18T05:15:58;38.83;;;13.87;;
2388;SDS011;1205;47.984;7.668;2022-12-18T05:18:24;36.23;;;13.83;;
2388;SDS011;1205;47.984;7.668;2022-12-18T05:20:50;34.53;;;13.57;;
2388;SDS011;1205;47.984;7.668;2022-12-18T05:23:17;33.90;;;13.50;;
2388;SDS011;1205;47.984;7.668;2022-12-18T05:25:46;28.47;;;12.50;;
2388;SDS011;1205;47.984;7.668;2022-12-18T05:28:17;38.40;;;14.20;;
2388;SDS011;1205;47.984;7.668;2022-12-18T05:30:47;48.07;;;14.43;;
2388;SDS011;1205;47.984;7.668;2022-12-18T05:33:17;34.37;;;14.30;;
2388;SDS011;1205;47.984;7.668;2022-12-18T05:35:43;35.17;;;14.40;;
2388;SDS011;1205;47.984;7.668;2022-12-18T05:38:09;38.37;;;15.57;;
2388;SDS011;1205;47.984;7.668;2022-12-18T05:40:35;33.57;;;13.40;;
2388;SDS011;1205;47.984;7.668;2022-12-18T05:43:04;46.97;;;15.77;;
2388;SDS011;1205;47.984;7.668;2022-12-18T05:45:30;36.50;;;14.07;;
2388;SDS011;1205;47.984;7.668;2022-12-18T05:47:55;40.03;;;15.23;;
2388;SDS011;1205;47.984;7.668;2022-12-18T05:50:21;45.43;;;15.33;;
2388;SDS011;1205;47.984;7.668;2022-12-18T05:52:46;45.77;;;15.50;;
2388;SDS011;1205;47.984;7.668;2022-12-18T05:55:12;43.07;;;16.37;;
2388;SDS011;1205;47.984;7.668;2022-12-18T05:57:37;40.63;;;15.57;;
2388;SDS011;1205;47.984;7.668;2022-12-18T06:00:03;45.80;;;16.70;;
2388;SDS011;1205;47.984;7.668;2022-12-18T06:02:29;44.10;;;16.40;;
2388;SDS011;1205;47.984;7.668;2022-12-18T06:04:55;44.53;;;15.80;;
2388;SDS011;1205;47.984;7.668;2022-12-18T06:07:20;39.73;;;15.23;;
2388;SDS011;1205;47.984;7.668;2022-12-18T06:09:46;40.33;;;15.00;;
2388;SDS011;1205;47.984;7.668;2022-12-18T06:12:11;40.27;;;15.70;;
2388;SDS011;1205;47.984;7.668;2022-12-18T06:14:37;54.50;;;16.27;;
2388;SDS011;1205;47.984;7.668;2022-12-18T06:17:02;46.20;;;16.20;;
2388;SDS011;1205;47.984;7.668;2022-12-18T06:19:28;39.30;;;13.47;;
2388;SDS011;1205;47.984;7.668;2022-12-18T06:21:54;52.13;;;15.27;;
2388;SDS011;1205;47.984;7.668;2022-12-18T06:24:19;41.97;;;15.30;;
2388;SDS011;1205;47.984;7.668;2022-12-18T06:26:45;42.23;;;16.43;;
2388;SDS011;1205;47.984;7.668;2022-12-18T06:29:10;43.20;;;14.87;;
2388;SDS011;1205;47.984;7.668;2022-12-18T06:31:36;39.97;;;14.10;;
2388;SDS011;1205;47.984;7.668;2022-12-18T06:34:02;30.40;;;12.90;;
2388;SDS011;1205;47.984;7.668;2022-12-18T06:36:29;50.73;;;14.30;;
2388;SDS011;1205;47.984;7.668;2022-12-18T06:38:54;38.23;;;14.80;;
2388;SDS011;1205;47.984;7.668;2022-12-18T06:41:22;46.33;;;13.73;;
2388;SDS011;1205;47.984;7.668;2022-12-18T06:43:47;34.70;;;15.10;;
2388;SDS011;1205;47.984;7.668;2022-12-18T06:46:13;41.50;;;14.93;;
2388;SDS011;1205;47.984;7.668;2022-12-18T06:48:39;52.33;;;15.40;;
2388;SDS011;1205;47.984;7.668;2022-12-18T06:51:05;43.27;;;16.53;;
2388;SDS011;1205;47.984;7.668;2022-12-18T06:53:31;38.30;;;15.70;;
2388;SDS011;1205;47.984;7.668;2022-12-18T06:56:05;47.83;;;17.53;;
2388;SDS011;1205;47.984;7.668;2022-12-18T06:58:32;47.40;;;17.13;;
2388;SDS011;1205;47.984;7.668;2022-12-18T07:01:01;38.40;;;15.87;;
2388;SDS011;1205;47.984;7.668;2022-12-18T07:03:28;31.20;;;13.43;;
2388;SDS011;1205;47.984;7.668;2022-12-18T07:05:53;38.20;;;14.50;;
2388;SDS011;1205;47.984;7.668;2022-12-18T07:08:19;40.40;;;14.67;;
2388;SDS011;1205;47.984;7.668;2022-12-18T07:10:45;29.10;;;12.77;;
2388;SDS011;1205;47.984;7.668;2022-12-18T07:13:10;39.00;;;14.20;;
2388;SDS011;1205;47.984;7.668;2022-12-18T07:15:36;39.10;;;14.20;;
2388;SDS011;1205;47.984;7.668;2022-12-18T07:18:01;32.40;;;13.73;;
2388;SDS011;1205;47.984;7.668;2022-12-18T07:20:27;32.40;;;13.60;;
2388;SDS011;1205;47.984;7.668;2022-12-18T07:22:52;40.90;;;15.20;;
2388;SDS011;1205;47.984;7.668;2022-12-18T07:25:18;35.97;;;13.70;;
2388;SDS011;1205;47.984;7.668;2022-12-18T07:27:44;44.47;;;16.67;;
2388;SDS011;1205;47.984;7.668;2022-12-18T07:30:09;41.17;;;15.97;;
2388;SDS011;1205;47.984;7.668;2022-12-18T07:32:35;44.97;;;18.83;;
2388;SDS011;1205;47.984;7.668;2022-12-18T07:35:01;49.90;;;16.87;;
2388;SDS011;1205;47.984;7.668;2022-12-18T07:37:26;44.53;;;18.10;;
2388;SDS011;1205;47.984;7.668;2022-12-18T07:39:52;37.83;;;17.30;;
2388;SDS011;1205;47.984;7.668;2022-12-18T07:42:17;29.37;;;12.93;;
2388;SDS011;1205;47.984;7.668;2022-12-18T07:44:55;30.00;;;13.73;;
2388;SDS011;1205;47.984;7.668;2022-12-18T07:47:21;34.20;;;14.80;;
2388;SDS011;1205;47.984;7.668;2022-12-18T07:49:46;33.33;;;14.60;;
2388;SDS011;1205;47.984;7.668;2022-12-18T07:52:12;33.33;;;13.70;;
2388;SDS011;1205;47.984;7.668;2022-12-18T07:54:38;48.23;;;15.03;;
2388;SDS011;1205;47.984;7.668;2022-12-18T07:57:05;40.07;;;15.43;;
2388;SDS011;1205;47.984;7.668;2022-12-18T07:59:31;41.73;;;16.87;;
2388;SDS011;1205;47.984;7.668;2022-12-18T08:01:56;43.13;;;14.97;;
2388;SDS011;1205;47.984;7.668;2022-12-18T08:04:22;35.60;;;14.50;;
2388;SDS011;1205;47.984;7.668;2022-12-18T08:06:47;43.47;;;15.47;;
2388;SDS011;1205;47.984;7.668;2022-12-18T08:09:13;35.57;;;14.47;;
2388;SDS011;1205;47.984;7.668;2022-12-18T08:11:39;40.77;;;15.40;;
2388;SDS011;1205;47.984;7.668;2022-12-18T08:14:04;44.10;;;15.37;;
2388;SDS011;1205;47.984;7.668;2022-12-18T08:16:30;33.33;;;13.80;;
2388;SDS011;1205;47.984;7.668;2022-12-18T08:18:55;38.00;;;14.97;;
2388;SDS011;1205;47.984;7.668;2022-12-18T08:21:25;38.17;;;14.40;;
2388;SDS011;1205;47.984;7.668;2022-12-18T08:23:53;46.13;;;15.80;;
2388;SDS011;1205;47.984;7.668;2022-12-18T08:26:20;41.13;;;16.00;;
2388;SDS011;1205;47.984;7.668;2022-12-18T08:28:46;37.57;;;14.10;;
2388;SDS011;1205;47.984;7.668;2022-12-18T08:31:11;34.40;;;13.40;;
2388;SDS011;1205;47.984;7.668;2022-12-18T08:33:38;29.23;;;13.00;;
2388;SDS011;1205;47.984;7.668;2022-12-18T08:36:04;34.73;;;14.77;;
2388;SDS011;1205;47.984;7.668;2022-12-18T08:38:31;36.93;;;15.37;;
2388;SDS011;1205;47.984;7.668;2022-12-18T08:41:04;44.23;;;17.43;;
2388;SDS011;1205;47.984;7.668;2022-12-18T08:43:31;41.40;;;17.97;;
2388;SDS011;1205;47.984;7.668;2022-12-18T08:46:15;43.37;;;18.00;;
2388;SDS011;1205;47.984;7.668;2022-12-18T08:48:43;37.33;;;15.57;;
2388;SDS011;1205;47.984;7.668;2022-12-18T08:51:08;35.83;;;13.93;;
2388;SDS011;1205;47.984;7.668;2022-12-18T08:53:34;34.67;;;14.37;;
2388;SDS011;1205;47.984;7.668;2022-12-18T08:56:01;40.80;;;11.50;;
2388;SDS011;1205;47.984;7.668;2022-12-18T08:58:27;28.47;;;12.83;;
2388;SDS011;1205;47.984;7.668;2022-12-18T09:00:52;30.63;;;12.33;;
2388;SDS011;1205;47.984;7.668;2022-12-18T09:03:18;27.00;;;11.20;;
2388;SDS011;1205;47.984;7.668;2022-12-18T09:05:47;22.77;;;11.27;;
2388;SDS011;1205;47.984;7.668;2022-12-18T09:08:13;27.73;;;12.57;;
2388;SDS011;1205;47.984;7.668;2022-12-18T09:10:45;28.70;;;12.83;;
2388;SDS011;1205;47.984;7.668;2022-12-18T09:13:12;30.20;;;12.47;;
2388;SDS011;1205;47.984;7.668;2022-12-18T09:15:41;26.50;;;12.37;;
2388;SDS011;1205;47.984;7.668;2022-12-18T09:18:08;28.20;;;11.77;;
2388;SDS011;1205;47.984;7.668;2022-12-18T09:20:34;27.57;;;12.60;;
2388;SDS011;1205;47.984;7.668;2022-12-18T09:23:00;35.00;;;12.50;;
2388;SDS011;1205;47.984;7.668;2022-12-18T09:25:26;25.63;;;12.20;;
2388;SDS011;1205;47.984;7.668;2022-12-18T09:27:56;19.93;;;10.23;;
2388;SDS011;1205;47.984;7.668;2022-12-18T09:30:22;28.17;;;12.27;;
2388;SDS011;1205;47.984;7.668;2022-12-18T09:32:47;26.37;;;12.30;;
2388;SDS011;1205;47.984;7.668;2022-12-18T09:35:13;25.37;;;12.10;;
2388;SDS011;1205;47.984;7.668;2022-12-18T09:37:38;34.63;;;11.67;;
2388;SDS011;1205;47.984;7.668;2022-12-18T09:40:04;40.67;;;12.80;;
2388;SDS011;1205;47.984;7.668;2022-12-18T09:42:30;23.40;;;12.10;;
2388;SDS011;1205;47.984;7.668;2022-12-18T09:44:56;22.53;;;10.60;;
2388;SDS011;1205;47.984;7.668;2022-12-18T09:49:59;22.87;;;11.40;;
2388;SDS011;1205;47.984;7.668;2022-12-18T09:52:30;24.53;;;10.87;;
2388;SDS011;1205;47.984;7.668;2022-12-18T09:58:00;25.00;;;11.27;;
2388;SDS011;1205;47.984;7.668;2022-12-18T10:00:32;23.07;;;10.40;;
2388;SDS011;1205;47.984;7.668;2022-12-18T10:03:02;21.43;;;10.17;;
2388;SDS011;1205;47.984;7.668;2022-12-18T10:08:09;21.40;;;9.00;;
2388;SDS011;1205;47.984;7.668;2022-12-18T10:10:57;26.73;;;11.10;;
2388;SDS011;1205;47.984;7.668;2022-12-18T10:13:45;27.30;;;10.90;;
2388;SDS011;1205;47.984;7.668;2022-12-18T10:16:27;40.07;;;19.30;;
2388;SDS011;1205;47.984;7.668;2022-12-18T10:21:58;23.93;;;11.50;;
2388;SDS011;1205;47.984;7.668;2022-12-18T10:27:29;20.03;;;10.30;;
2388;SDS011;1205;47.984;7.668;2022-12-18T10:29:55;29.77;;;10.63;;
2388;SDS011;1205;47.984;7.668;2022-12-18T10:32:23;21.30;;;10.77;;
2388;SDS011;1205;47.984;7.668;2022-12-18T10:34:50;23.37;;;11.53;;
2388;SDS011;1205;47.984;7.668;2022-12-18T10:37:21;30.57;;;12.13;;
2388;SDS011;1205;47.984;7.668;2022-12-18T10:40:08;24.87;;;12.37;;
2388;SDS011;1205;47.984;7.668;2022-12-18T10:42:39;25.80;;;11.63;;
2388;SDS011;1205;47.984;7.668;2022-12-18T10:45:10;17.57;;;8.87;;
2388;SDS011;1205;47.984;7.668;2022-12-18T10:47:44;29.87;;;13.00;;
2388;SDS011;1205;47.984;7.668;2022-12-18T10:50:28;25.87;;;12.03;;
2388;SDS011;1205;47.984;7.668;2022-12-18T10:52:57;31.83;;;14.60;;
2388;SDS011;1205;47.984;7.668;2022-12-18T10:55:27;29.33;;;12.73;;
2388;SDS011;1205;47.984;7.668;2022-12-18T10:58:13;25.37;;;12.57;;
2388;SDS011;1205;47.984;7.668;2022-12-18T11:01:04;26.20;;;13.20;;
2388;SDS011;1205;47.984;7.668;2022-12-18T11:03:41;28.67;;;14.63;;
2388;SDS011;1205;47.984;7.668;2022-12-18T11:06:10;31.83;;;16.40;;
2388;SDS011;1205;47.984;7.668;2022-12-18T11:08:41;31.20;;;15.20;;
2388;SDS011;1205;47.984;7.668;2022-12-18T11:11:21;33.90;;;14.40;;
2388;SDS011;1205;47.984;7.668;2022-12-18T11:13:54;34.60;;;15.60;;
2388;SDS011;1205;47.984;7.668;2022-12-18T11:16:24;32.73;;;14.80;;
2388;SDS011;1205;47.984;7.668;2022-12-18T11:18:51;31.10;;;14.37;;
2388;SDS011;1205;47.984;7.668;2022-12-18T11:21:17;30.73;;;13.93;;
2388;SDS011;1205;47.984;7.668;2022-12-18T11:23:49;28.07;;;13.67;;
2388;SDS011;1205;47.984;7.668;2022-12-18T11:26:17;42.83;;;20.33;;
2388;SDS011;1205;47.984;7.668;2022-12-18T11:28:44;29.20;;;14.07;;
2388;SDS011;1205;47.984;7.668;2022-12-18T11:31:31;31.80;;;14.40;;
2388;SDS011;1205;47.984;7.668;2022-12-18T11:36:39;30.73;;;15.67;;
2388;SDS011;1205;47.984;7.668;2022-12-18T11:39:15;34.77;;;15.60;;
2388;SDS011;1205;47.984;7.668;2022-12-18T11:41:53;32.90;;;13.80;;
2388;SDS011;1205;47.984;7.668;2022-12-18T11:44:51;31.53;;;15.13;;
2388;SDS011;1205;47.984;7.668;2022-12-18T11:50:05;36.10;;;15.90;;
2388;SDS011;1205;47.984;7.668;2022-12-18T11:52:48;39.70;;;16.97;;
2388;SDS011;1205;47.984;7.668;2022-12-18T11:55:25;36.20;;;15.37;;
2388;SDS011;1205;47.984;7.668;2022-12-18T11:58:23;28.50;;;14.63;;
2388;SDS011;1205;47.984;7.668;2022-12-18T12:00:58;31.47;;;15.20;;
2388;SDS011;1205;47.984;7.668;2022-12-18T12:12:15;31.50;;;14.50;;
2388;SDS011;1205;47.984;7.668;2022-12-18T12:15:17;30.60;;;14.70;;
2388;SDS011;1205;47.984;7.668;2022-12-18T12:20:48;32.33;;;14.70;;
2388;SDS011;1205;47.984;7.668;2022-12-18T12:26:06;30.30;;;15.30;;
2388;SDS011;1205;47.984;7.668;2022-12-18T12:34:00;27.23;;;14.70;;
2388;SDS011;1205;47.984;7.668;2022-12-18T12:39:07;30.27;;;14.93;;
2388;SDS011;1205;47.984;7.668;2022-12-18T12:41:39;30.00;;;15.60;;
2388;SDS011;1205;47.984;7.668;2022-12-18T12:46:55;31.30;;;15.37;;
2388;SDS011;1205;47.984;7.668;2022-12-18T12:49:25;22.73;;;12.50;;
2388;SDS011;1205;47.984;7.668;2022-12-18T12:51:57;24.90;;;11.73;;
2388;SDS011;1205;47.984;7.668;2022-12-18T12:54:24;26.73;;;12.57;;
2388;SDS011;1205;47.984;7.668;2022-12-18T12:56:58;27.60;;;13.47;;
2388;SDS011;1205;47.984;7.668;2022-12-18T12:59:39;21.83;;;11.07;;
2388;SDS011;1205;47.984;7.668;2022-12-18T13:02:29;22.80;;;12.90;;
2388;SDS011;1205;47.984;7.668;2022-12-18T13:07:55;29.87;;;16.40;;
2388;SDS011;1205;47.984;7.668;2022-12-18T13:15:46;36.47;;;19.90;;
2388;SDS011;1205;47.984;7.668;2022-12-18T13:18:29;29.80;;;15.37;;
2388;SDS011;1205;47.984;7.668;2022-12-18T13:25:53;33.57;;;17.47;;
2388;SDS011;1205;47.984;7.668;2022-12-18T13:28:21;29.33;;;13.83;;
2388;SDS011;1205;47.984;7.668;2022-12-18T13:30:57;29.43;;;13.73;;
2388;SDS011;1205;47.984;7.668;2022-12-18T13:38:40;29.13;;;13.80;;
2388;SDS011;1205;47.984;7.668;2022-12-18T13:43:41;27.50;;;14.30;;
2388;SDS011;1205;47.984;7.668;2022-12-18T13:46:28;24.97;;;14.10;;
2388;SDS011;1205;47.984;7.668;2022-12-18T13:51:40;33.33;;;14.87;;
2388;SDS011;1205;47.984;7.668;2022-12-18T13:56:58;32.93;;;16.80;;
2388;SDS011;1205;47.984;7.668;2022-12-18T13:59:25;26.60;;;14.47;;
2388;SDS011;1205;47.984;7.668;2022-12-18T14:01:55;29.33;;;16.10;;
2388;SDS011;1205;47.984;7.668;2022-12-18T14:06:56;30.77;;;16.30;;
2388;SDS011;1205;47.984;7.668;2022-12-18T14:09:28;34.70;;;17.63;;
2388;SDS011;1205;47.984;7.668;2022-12-18T14:11:56;33.10;;;17.60;;
2388;SDS011;1205;47.984;7.668;2022-12-18T14:14:43;31.00;;;16.67;;
2388;SDS011;1205;47.984;7.668;2022-12-18T14:17:12;30.67;;;15.30;;
2388;SDS011;1205;47.984;7.668;2022-12-18T14:19:45;28.73;;;15.17;;
2388;SDS011;1205;47.984;7.668;2022-12-18T14:22:25;29.03;;;15.97;;
2388;SDS011;1205;47.984;7.668;2022-12-18T14:27:45;29.13;;;15.00;;
2388;SDS011;1205;47.984;7.668;2022-12-18T14:30:22;25.20;;;13.83;;
2388;SDS011;1205;47.984;7.668;2022-12-18T14:35:26;24.97;;;14.00;;
2388;SDS011;1205;47.984;7.668;2022-12-18T14:37:53;30.90;;;15.10;;
2388;SDS011;1205;47.984;7.668;2022-12-18T14:40:18;27.73;;;14.87;;
2388;SDS011;1205;47.984;7.668;2022-12-18T14:42:44;29.57;;;15.03;;
2388;SDS011;1205;47.984;7.668;2022-12-18T14:47:58;27.80;;;14.30;;
2388;SDS011;1205;47.984;7.668;2022-12-18T14:50:24;28.00;;;14.67;;
2388;SDS011;1205;47.984;7.668;2022-12-18T14:52:51;30.03;;;16.30;;
2388;SDS011;1205;47.984;7.668;2022-12-18T14:55:17;23.40;;;13.47;;
2388;SDS011;1205;47.984;7.668;2022-12-18T14:57:44;30.00;;;14.00;;
2388;SDS011;1205;47.984;7.668;2022-12-18T15:00:18;27.90;;;13.67;;
2388;SDS011;1205;47.984;7.668;2022-12-18T15:02:45;25.27;;;13.63;;
2388;SDS011;1205;47.984;7.668;2022-12-18T15:05:28;26.13;;;13.47;;
2388;SDS011;1205;47.984;7.668;2022-12-18T15:07:56;28.93;;;14.47;;
2388;SDS011;1205;47.984;7.668;2022-12-18T15:10:27;24.37;;;13.03;;
2388;SDS011;1205;47.984;7.668;2022-12-18T15:20:39;23.93;;;13.57;;
2388;SDS011;1205;47.984;7.668;2022-12-18T15:23:16;28.27;;;15.27;;
2388;SDS011;1205;47.984;7.668;2022-12-18T15:25:44;37.57;;;17.23;;
2388;SDS011;1205;47.984;7.668;2022-12-18T15:28:19;32.57;;;17.20;;
2388;SDS011;1205;47.984;7.668;2022-12-18T15:30:57;34.20;;;16.80;;
2388;SDS011;1205;47.984;7.668;2022-12-18T15:33:26;36.03;;;18.10;;
2388;SDS011;1205;47.984;7.668;2022-12-18T15:35:58;30.17;;;15.83;;
2388;SDS011;1205;47.984;7.668;2022-12-18T15:38:26;35.73;;;17.33;;
2388;SDS011;1205;47.984;7.668;2022-12-18T15:40:52;40.33;;;18.90;;
2388;SDS011;1205;47.984;7.668;2022-12-18T15:43:20;35.70;;;17.40;;
2388;SDS011;1205;47.984;7.668;2022-12-18T15:45:59;28.97;;;15.27;;
2388;SDS011;1205;47.984;7.668;2022-12-18T15:48:29;25.47;;;14.77;;
2388;SDS011;1205;47.984;7.668;2022-12-18T15:50:55;32.80;;;16.53;;
2388;SDS011;1205;47.984;7.668;2022-12-18T15:53:22;33.03;;;16.07;;
2388;SDS011;1205;47.984;7.668;2022-12-18T15:55:58;30.30;;;15.00;;
2388;SDS011;1205;47.984;7.668;2022-12-18T15:58:43;31.40;;;15.43;;
2388;SDS011;1205;47.984;7.668;2022-12-18T16:01:09;32.00;;;15.87;;
2388;SDS011;1205;47.984;7.668;2022-12-18T16:03:35;36.77;;;16.67;;
2388;SDS011;1205;47.984;7.668;2022-12-18T16:06:01;31.07;;;16.83;;
2388;SDS011;1205;47.984;7.668;2022-12-18T16:08:27;33.27;;;17.27;;
2388;SDS011;1205;47.984;7.668;2022-12-18T16:10:56;31.80;;;15.97;;
2388;SDS011;1205;47.984;7.668;2022-12-18T16:13:22;30.40;;;16.10;;
2388;SDS011;1205;47.984;7.668;2022-12-18T16:15:48;32.10;;;17.67;;
2388;SDS011;1205;47.984;7.668;2022-12-18T16:18:14;34.10;;;17.57;;
2388;SDS011;1205;47.984;7.668;2022-12-18T16:20:40;34.20;;;17.80;;
2388;SDS011;1205;47.984;7.668;2022-12-18T16:23:05;38.87;;;18.30;;
2388;SDS011;1205;47.984;7.668;2022-12-18T16:25:31;30.97;;;17.00;;
2388;SDS011;1205;47.984;7.668;2022-12-18T16:27:57;37.83;;;17.13;;
2388;SDS011;1205;47.984;7.668;2022-12-18T16:30:24;37.97;;;17.97;;
2388;SDS011;1205;47.984;7.668;2022-12-18T16:32:53;31.37;;;17.77;;
2388;SDS011;1205;47.984;7.668;2022-12-18T16:35:19;35.83;;;18.00;;
2388;SDS011;1205;47.984;7.668;2022-12-18T16:37:45;32.20;;;18.00;;
2388;SDS011;1205;47.984;7.668;2022-12-18T16:40:12;36.57;;;17.57;;
2388;SDS011;1205;47.984;7.668;2022-12-18T16:42:40;30.50;;;17.40;;
2388;SDS011;1205;47.984;7.668;2022-12-18T16:45:07;33.97;;;17.40;;
2388;SDS011;1205;47.984;7.668;2022-12-18T16:47:34;30.77;;;17.23;;
2388;SDS011;1205;47.984;7.668;2022-12-18T16:50:00;31.83;;;17.73;;
2388;SDS011;1205;47.984;7.668;2022-12-18T16:52:26;35.70;;;17.20;;
2388;SDS011;1205;47.984;7.668;2022-12-18T16:54:52;27.67;;;15.63;;